Terminal Aerodrome Forecast
Issued by NWS San Angelo, TX

Home | Current Version | Previous Version | Text Only | Print | Product List | Glossary On
Versions: 1 2 3 4 5 6 7 8 9 10 11 12 13 14 15 16 17 18 19
000
FTUS44 KSJT 171100
TAFSJT
TAF
KSJT 171138Z 1712/1812 VRB03KT P6SM SCT030 SCT120
     FM171800 08008KT P6SM SCT060 BKN200
     FM180000 11007KT P6SM SCT100 BKN200=

USA.gov is the U.S. government's official web portal to all federal, state and local government web resources and services.